createdAt,value
2017-06-02T00:00:04.554Z,0
2017-06-02T00:01:17.100Z,0
2017-06-02T00:02:29.620Z,0
2017-06-02T00:03:42.162Z,0
2017-06-02T00:04:54.705Z,0
2017-06-02T00:06:06.612Z,0
2017-06-02T00:07:18.858Z,0
2017-06-02T00:08:31.379Z,0
2017-06-02T00:09:43.921Z,0
2017-06-02T00:10:56.450Z,0
2017-06-02T00:12:08.988Z,0
2017-06-02T00:13:21.189Z,0
2017-06-02T00:14:32.805Z,0
2017-06-02T00:15:45.347Z,0
2017-06-02T00:16:57.889Z,0
2017-06-02T00:18:10.121Z,0
2017-06-02T00:19:22.063Z,0
2017-06-02T00:20:34.305Z,0
2017-06-02T00:21:46.508Z,0
2017-06-02T00:22:58.744Z,0
2017-06-02T00:24:11.275Z,0
2017-06-02T00:25:23.514Z,0
2017-06-02T00:26:36.064Z,0
2017-06-02T00:27:48.581Z,0
2017-06-02T00:29:00.801Z,0
2017-06-02T00:30:13.047Z,0
2017-06-02T00:31:25.294Z,0
2017-06-02T00:32:38.061Z,0
2017-06-02T00:33:50.610Z,0
2017-06-02T00:35:02.854Z,0
2017-06-02T00:36:15.408Z,0
2017-06-02T00:37:27.634Z,0
2017-06-02T00:38:39.857Z,0
2017-06-02T00:39:52.086Z,0
2017-06-02T00:41:04.624Z,0
2017-06-02T00:42:16.861Z,0
2017-06-02T00:43:29.377Z,0
2017-06-02T00:44:41.898Z,0
2017-06-02T00:45:54.452Z,0
2017-06-02T00:47:06.948Z,0
2017-06-02T00:48:18.865Z,0
2017-06-02T00:49:31.104Z,0
2017-06-02T00:50:43.632Z,0
2017-06-02T00:51:55.558Z,0
2017-06-02T00:53:08.104Z,0
2017-06-02T00:54:20.647Z,0
2017-06-02T00:55:32.570Z,0
2017-06-02T00:56:45.137Z,0
2017-06-02T00:57:57.675Z,0
2017-06-02T00:59:09.882Z,0
2017-06-02T01:00:22.125Z,0
2017-06-02T01:01:34.664Z,0
2017-06-02T01:02:46.920Z,0
2017-06-02T01:03:58.855Z,0
2017-06-02T01:05:11.308Z,0
2017-06-02T01:06:23.521Z,0
2017-06-02T01:07:36.047Z,0
2017-06-02T01:08:48.591Z,0
2017-06-02T01:10:01.137Z,0
2017-06-02T01:11:12.163Z,0
2017-06-02T01:12:24.401Z,0
2017-06-02T01:13:36.630Z,0
2017-06-02T01:14:49.168Z,0
2017-06-02T01:16:01.090Z,0
2017-06-02T01:17:13.014Z,0
2017-06-02T01:18:24.938Z,0
2017-06-02T01:19:37.490Z,0
2017-06-02T01:20:50.031Z,0
2017-06-02T01:22:02.572Z,0
2017-06-02T01:23:14.801Z,0
2017-06-02T01:24:26.468Z,0
2017-06-02T01:25:38.990Z,0
2017-06-02T01:26:51.809Z,0
2017-06-02T01:28:04.052Z,0
2017-06-02T01:29:16.281Z,0
2017-06-02T01:30:28.198Z,0
2017-06-02T01:31:40.718Z,0
2017-06-02T01:32:52.939Z,0
2017-06-02T01:34:05.465Z,0
2017-06-02T01:35:17.427Z,0
2017-06-02T01:36:29.675Z,0
2017-06-02T01:37:42.224Z,0
2017-06-02T01:38:54.153Z,0
2017-06-02T01:40:06.707Z,0
2017-06-02T01:41:18.637Z,0
2017-06-02T01:42:30.861Z,0
2017-06-02T01:43:42.777Z,0
2017-06-02T01:44:54.690Z,0
2017-06-02T01:46:07.197Z,0
2017-06-02T01:47:19.412Z,0
2017-06-02T01:48:31.953Z,0
2017-06-02T01:49:43.912Z,0
2017-06-02T01:50:56.471Z,0
2017-06-02T01:52:08.699Z,0
2017-06-02T01:53:21.245Z,0
2017-06-02T01:54:33.445Z,0
2017-06-02T01:55:45.937Z,0
2017-06-02T01:56:58.457Z,0
2017-06-02T01:58:11.003Z,0
2017-06-02T01:59:23.499Z,0
2017-06-02T02:00:36.012Z,0
2017-06-02T02:01:47.919Z,0
2017-06-02T02:03:00.133Z,0
2017-06-02T02:04:12.658Z,0
2017-06-02T02:05:24.587Z,0
2017-06-02T02:06:37.121Z,0
2017-06-02T02:07:49.621Z,0
2017-06-02T02:09:01.871Z,0
2017-06-02T02:10:14.113Z,0
2017-06-02T02:11:25.737Z,0
2017-06-02T02:12:38.000Z,0
2017-06-02T02:13:50.529Z,0
2017-06-02T02:15:03.072Z,0
2017-06-02T02:16:14.996Z,0
2017-06-02T02:17:27.530Z,0
2017-06-02T02:18:40.037Z,0
2017-06-02T02:19:52.572Z,0
2017-06-02T02:21:04.805Z,0
2017-06-02T02:22:16.764Z,0
2017-06-02T02:23:28.989Z,0
2017-06-02T02:24:41.513Z,0
2017-06-02T02:25:54.037Z,0
2017-06-02T02:27:05.955Z,0
2017-06-02T02:28:18.455Z,0
2017-06-02T02:29:30.991Z,0
2017-06-02T02:30:43.547Z,0
2017-06-02T02:31:56.067Z,0
2017-06-02T02:33:08.588Z,0
2017-06-02T02:34:20.526Z,0
2017-06-02T02:35:33.055Z,0
2017-06-02T02:36:45.596Z,0
2017-06-02T02:37:58.123Z,0
2017-06-02T02:39:10.060Z,0
2017-06-02T02:40:21.678Z,5
2017-06-02T02:41:34.224Z,5
2017-06-02T02:42:47.055Z,5
2017-06-02T02:43:59.273Z,5
2017-06-02T02:45:11.817Z,5
2017-06-02T02:46:24.040Z,5
2017-06-02T02:47:36.565Z,5
2017-06-02T02:48:49.085Z,5
2017-06-02T02:50:01.307Z,10
2017-06-02T02:51:13.533Z,10
2017-06-02T02:52:26.073Z,10
2017-06-02T02:53:38.292Z,10
2017-06-02T02:54:50.813Z,10
2017-06-02T02:56:03.035Z,15
2017-06-02T02:57:14.657Z,15
2017-06-02T02:58:26.903Z,15
2017-06-02T02:59:39.438Z,15
2017-06-02T03:00:51.941Z,15
2017-06-02T03:02:04.170Z,20
2017-06-02T03:03:15.829Z,20
2017-06-02T03:04:28.355Z,20
2017-06-02T03:05:40.853Z,20
2017-06-02T03:06:53.373Z,20
2017-06-02T03:08:05.616Z,25
2017-06-02T03:09:17.538Z,25
2017-06-02T03:10:30.040Z,25
2017-06-02T03:11:42.572Z,30
2017-06-02T03:12:55.080Z,30
2017-06-02T03:14:07.325Z,30
2017-06-02T03:15:19.771Z,30
2017-06-02T03:16:32.320Z,35
2017-06-02T03:17:44.863Z,35
2017-06-02T03:18:56.787Z,35
2017-06-02T03:20:09.318Z,40
2017-06-02T03:21:21.642Z,40
2017-06-02T03:22:33.868Z,40
2017-06-02T03:23:46.368Z,45
2017-06-02T03:24:58.568Z,45
2017-06-02T03:26:10.802Z,45
2017-06-02T03:27:23.343Z,45
2017-06-02T03:28:35.868Z,50
2017-06-02T03:29:48.417Z,50
2017-06-02T03:31:00.917Z,50
2017-06-02T03:32:12.861Z,55
2017-06-02T03:33:25.384Z,55
2017-06-02T03:34:37.348Z,55
2017-06-02T03:35:49.856Z,55
2017-06-02T03:37:02.386Z,60
2017-06-02T03:38:14.613Z,60
2017-06-02T03:39:26.871Z,60
2017-06-02T03:40:39.135Z,65
2017-06-02T03:41:51.653Z,65
2017-06-02T03:43:04.178Z,65
2017-06-02T03:44:16.098Z,65
2017-06-02T03:45:28.321Z,70
2017-06-02T03:46:40.553Z,70
2017-06-02T03:47:52.777Z,70
2017-06-02T03:49:04.708Z,75
2017-06-02T03:50:17.242Z,75
2017-06-02T03:51:29.791Z,75
2017-06-02T03:52:42.342Z,75
2017-06-02T03:53:54.566Z,80
2017-06-02T03:55:07.104Z,80
2017-06-02T03:56:19.350Z,80
2017-06-02T03:57:31.575Z,85
2017-06-02T03:58:44.123Z,85
2017-06-02T03:59:56.645Z,85
2017-06-02T04:01:09.190Z,85
2017-06-02T04:02:21.109Z,90
2017-06-02T04:03:33.648Z,90
2017-06-02T04:04:45.875Z,90
2017-06-02T04:05:57.537Z,95
2017-06-02T04:07:09.788Z,95
2017-06-02T04:08:22.030Z,95
2017-06-02T04:09:33.988Z,95
2017-06-02T04:10:46.530Z,100
2017-06-02T04:11:58.753Z,100
2017-06-02T04:13:10.972Z,100
2017-06-02T04:14:23.500Z,100
2017-06-02T04:15:36.043Z,100
2017-06-02T04:16:48.614Z,105
2017-06-02T04:18:01.147Z,105
2017-06-02T04:19:13.380Z,105
2017-06-02T04:20:25.876Z,105
2017-06-02T04:21:38.393Z,105
2017-06-02T04:22:50.290Z,110
2017-06-02T04:24:02.528Z,110
2017-06-02T04:25:15.057Z,110
2017-06-02T04:26:27.281Z,110
2017-06-02T04:27:39.826Z,115
2017-06-02T04:28:52.064Z,115
2017-06-02T04:30:04.592Z,115
2017-06-02T04:31:17.131Z,115
2017-06-02T04:32:28.787Z,120
2017-06-02T04:33:41.327Z,120
2017-06-02T04:34:53.843Z,120
2017-06-02T04:36:05.471Z,120
2017-06-02T04:37:17.707Z,125
2017-06-02T04:38:29.616Z,125
2017-06-02T04:39:41.856Z,125
2017-06-02T04:40:54.082Z,125
2017-06-02T04:42:06.301Z,130
2017-06-02T04:43:18.223Z,130
2017-06-02T04:44:29.868Z,130
2017-06-02T04:45:42.418Z,135
2017-06-02T04:46:54.961Z,135
2017-06-02T04:48:07.473Z,135
2017-06-02T04:49:19.099Z,135
2017-06-02T04:50:31.337Z,140
2017-06-02T04:51:43.566Z,140
2017-06-02T04:52:55.764Z,145
2017-06-02T04:54:08.003Z,145
2017-06-02T04:55:19.954Z,150
2017-06-02T04:56:32.221Z,150
2017-06-02T04:57:44.749Z,145
2017-06-02T04:58:56.970Z,150
2017-06-02T05:00:09.482Z,150
2017-06-02T05:01:21.710Z,155
2017-06-02T05:02:33.947Z,155
2017-06-02T05:03:46.179Z,155
2017-06-02T05:04:58.697Z,160
2017-06-02T05:06:11.218Z,160
2017-06-02T05:07:23.442Z,170
2017-06-02T05:08:35.054Z,175
2017-06-02T05:09:47.573Z,175
2017-06-02T05:11:00.130Z,185
2017-06-02T05:12:12.053Z,185
2017-06-02T05:13:23.973Z,190
2017-06-02T05:14:36.231Z,190
2017-06-02T05:15:48.780Z,195
2017-06-02T05:17:01.005Z,200
2017-06-02T05:18:13.260Z,230
2017-06-02T05:19:25.500Z,290
2017-06-02T05:20:37.474Z,265
2017-06-02T05:21:50.032Z,290
2017-06-02T05:23:02.251Z,375
2017-06-02T05:24:14.182Z,465
2017-06-02T05:25:26.698Z,470
2017-06-02T05:26:39.223Z,375
2017-06-02T05:27:51.722Z,285
2017-06-02T05:29:04.269Z,255
2017-06-02T05:30:16.192Z,225
2017-06-02T05:31:28.399Z,210
2017-06-02T05:32:40.603Z,215
2017-06-02T05:33:52.823Z,215
2017-06-02T05:35:05.065Z,195
2017-06-02T05:36:16.965Z,190
2017-06-02T05:37:28.904Z,190
2017-06-02T05:38:41.449Z,190
2017-06-02T05:39:53.678Z,190
2017-06-02T05:41:06.229Z,215
2017-06-02T05:42:18.487Z,215
2017-06-02T05:43:30.736Z,200
2017-06-02T05:44:42.958Z,200
2017-06-02T05:45:55.211Z,200
2017-06-02T05:47:07.121Z,205
2017-06-02T05:48:19.375Z,215
2017-06-02T05:49:31.288Z,240
2017-06-02T05:50:43.822Z,240
2017-06-02T05:51:56.365Z,220
2017-06-02T05:53:07.411Z,220
2017-06-02T05:54:19.050Z,225
2017-06-02T05:55:31.604Z,220
2017-06-02T05:56:44.174Z,225
2017-06-02T05:57:56.447Z,235
2017-06-02T05:59:08.384Z,235
2017-06-02T06:00:20.939Z,240
2017-06-02T06:01:33.183Z,240
2017-06-02T06:02:45.426Z,245
2017-06-02T06:03:57.676Z,255
2017-06-02T06:05:09.622Z,280
2017-06-02T06:06:21.266Z,290
2017-06-02T06:07:33.490Z,265
2017-06-02T06:08:46.037Z,280
2017-06-02T06:09:58.603Z,335
2017-06-02T06:11:11.147Z,365
2017-06-02T06:12:23.388Z,490
2017-06-02T06:13:35.914Z,550
2017-06-02T06:14:48.456Z,500
2017-06-02T06:16:00.964Z,460
2017-06-02T06:17:13.184Z,450
2017-06-02T06:18:25.723Z,620
2017-06-02T06:19:38.523Z,910
2017-06-02T06:20:50.768Z,970
2017-06-02T06:22:03.306Z,555
2017-06-02T06:23:15.538Z,375
2017-06-02T06:24:27.780Z,525
2017-06-02T06:25:40.320Z,590
2017-06-02T06:26:52.869Z,440
2017-06-02T06:28:05.414Z,450
2017-06-02T06:29:16.736Z,400
2017-06-02T06:30:29.287Z,390
2017-06-02T06:31:41.859Z,515
2017-06-02T06:32:54.399Z,745
2017-06-02T06:34:06.941Z,965
2017-06-02T06:35:18.894Z,1130
2017-06-02T06:36:31.117Z,1150
2017-06-02T06:37:43.639Z,1125
2017-06-02T06:38:56.194Z,1150
2017-06-02T06:40:08.130Z,1170
2017-06-02T06:41:20.346Z,1135
2017-06-02T06:42:32.292Z,1125
2017-06-02T06:43:44.839Z,1160
2017-06-02T06:44:56.805Z,1130
2017-06-02T06:46:09.350Z,1150
2017-06-02T06:47:21.878Z,1150
2017-06-02T06:48:34.424Z,1170
2017-06-02T06:49:46.987Z,1170
2017-06-02T06:50:59.534Z,1160
2017-06-02T06:52:11.160Z,1205
2017-06-02T06:53:23.396Z,1210
2017-06-02T06:54:35.943Z,1225
2017-06-02T06:55:48.499Z,1215
2017-06-02T06:57:00.742Z,1230
2017-06-02T06:58:12.695Z,1240
2017-06-02T06:59:24.955Z,1275
2017-06-02T07:00:37.226Z,1300
2017-06-02T07:01:49.751Z,1370
2017-06-02T07:03:02.304Z,1360
2017-06-02T07:04:14.559Z,1335
2017-06-02T07:05:26.493Z,1445
2017-06-02T07:06:39.035Z,1455
2017-06-02T07:07:50.680Z,1370
2017-06-02T07:09:02.929Z,1465
2017-06-02T07:10:15.497Z,1445
2017-06-02T07:11:27.446Z,1435
2017-06-02T07:12:39.714Z,1455
2017-06-02T07:13:52.288Z,1510
2017-06-02T07:15:04.862Z,1565
2017-06-02T07:16:16.827Z,1605
2017-06-02T07:17:28.794Z,1555
2017-06-02T07:18:41.061Z,1545
2017-06-02T07:19:53.290Z,1565
2017-06-02T07:21:05.239Z,1605
2017-06-02T07:22:17.198Z,1650
2017-06-02T07:23:29.152Z,1520
2017-06-02T07:24:41.693Z,1630
2017-06-02T07:25:54.241Z,1685
2017-06-02T07:27:06.832Z,1660
2017-06-02T07:28:19.106Z,1720
2017-06-02T07:29:31.662Z,1655
2017-06-02T07:30:43.955Z,1740
2017-06-02T07:31:55.903Z,1900
2017-06-02T07:33:08.465Z,1775
2017-06-02T07:34:20.123Z,1805
2017-06-02T07:35:32.407Z,1760
2017-06-02T07:36:44.963Z,1755
2017-06-02T07:37:57.559Z,1810
2017-06-02T07:39:09.798Z,1880
2017-06-02T07:40:22.037Z,1840
2017-06-02T07:41:34.295Z,1855
2017-06-02T07:42:46.889Z,1950
2017-06-02T07:43:58.836Z,1920
2017-06-02T07:45:11.405Z,1940
2017-06-02T07:46:23.347Z,1955
2017-06-02T07:47:35.917Z,1870
2017-06-02T07:48:48.488Z,1915
2017-06-02T07:50:01.041Z,2065
2017-06-02T07:51:13.609Z,2155
2017-06-02T07:52:25.864Z,2065
2017-06-02T07:53:37.829Z,2045
2017-06-02T07:54:50.100Z,2100
2017-06-02T07:56:02.663Z,2200
2017-06-02T07:57:14.913Z,2120
2017-06-02T07:58:27.460Z,2085
2017-06-02T07:59:39.782Z,2130
2017-06-02T08:00:52.026Z,2240
2017-06-02T08:02:04.573Z,2155
2017-06-02T08:03:16.823Z,2300
2017-06-02T08:04:29.363Z,2275
2017-06-02T08:05:41.609Z,2250
2017-06-02T08:06:53.859Z,2330
2017-06-02T08:08:06.106Z,2235
2017-06-02T08:09:18.393Z,2275
2017-06-02T08:10:30.961Z,2375
2017-06-02T08:11:43.518Z,2420
2017-06-02T08:12:56.080Z,2450
2017-06-02T08:14:08.360Z,2470
2017-06-02T08:15:20.297Z,2395
2017-06-02T08:16:32.873Z,2460
2017-06-02T08:17:44.825Z,2495
2017-06-02T08:18:57.397Z,2405
2017-06-02T08:20:09.652Z,2435
2017-06-02T08:21:21.310Z,2605
2017-06-02T08:22:33.595Z,2520
2017-06-02T08:23:46.168Z,2680
2017-06-02T08:24:58.711Z,2645
2017-06-02T08:26:11.265Z,2630
2017-06-02T08:27:23.844Z,2570
2017-06-02T08:28:36.384Z,2680
2017-06-02T08:29:48.953Z,2580
2017-06-02T08:31:01.194Z,2705
2017-06-02T08:32:13.425Z,2835
2017-06-02T08:33:25.643Z,2795
2017-06-02T08:34:37.941Z,2730
2017-06-02T08:35:50.503Z,2680
2017-06-02T08:37:03.099Z,2745
2017-06-02T08:38:15.052Z,2785
2017-06-02T08:39:27.592Z,2855
2017-06-02T08:40:40.168Z,2930
2017-06-02T08:41:52.436Z,2930
2017-06-02T08:43:04.985Z,2880
2017-06-02T08:44:16.660Z,2845
2017-06-02T08:45:28.644Z,3050
2017-06-02T08:46:40.616Z,3070
2017-06-02T08:47:53.187Z,2890
2017-06-02T08:49:05.744Z,2880
2017-06-02T08:50:18.026Z,2845
2017-06-02T08:51:30.583Z,2900
2017-06-02T08:52:43.149Z,2965
2017-06-02T08:53:55.716Z,3235
2017-06-02T08:55:08.266Z,3060
2017-06-02T08:56:20.213Z,2965
2017-06-02T08:57:32.479Z,2940
2017-06-02T08:58:45.033Z,3140
2017-06-02T08:59:57.601Z,3125
2017-06-02T09:01:09.864Z,3225
2017-06-02T09:02:22.117Z,3260
2017-06-02T09:03:34.363Z,3115
2017-06-02T09:04:46.929Z,3185
2017-06-02T09:05:59.201Z,3290
2017-06-02T09:07:10.251Z,3180
2017-06-02T09:08:22.203Z,3335
2017-06-02T09:09:34.771Z,3445
2017-06-02T09:10:47.345Z,3360
2017-06-02T09:11:59.888Z,3350
2017-06-02T09:13:12.137Z,3275
2017-06-02T09:14:23.821Z,3205
2017-06-02T09:15:35.772Z,3370
2017-06-02T09:16:48.314Z,3325
2017-06-02T09:18:00.889Z,3455
2017-06-02T09:19:12.536Z,3300
2017-06-02T09:20:24.798Z,3380
2017-06-02T09:21:37.332Z,3510
2017-06-02T09:22:49.901Z,3525
2017-06-02T09:24:02.165Z,3515
2017-06-02T09:25:13.896Z,3470
2017-06-02T09:26:26.153Z,3510
2017-06-02T09:27:38.410Z,3445
2017-06-02T09:28:50.358Z,3440
2017-06-02T09:30:02.899Z,3805
2017-06-02T09:31:14.844Z,3545
2017-06-02T09:32:27.108Z,3370
2017-06-02T09:33:39.668Z,3695
2017-06-02T09:34:52.255Z,3805
2017-06-02T09:36:04.828Z,3670
2017-06-02T09:37:17.079Z,3480
2017-06-02T09:38:29.069Z,3685
2017-06-02T09:39:41.016Z,3660
2017-06-02T09:40:53.579Z,3565
2017-06-02T09:42:06.174Z,3800
2017-06-02T09:43:18.428Z,3840
2017-06-02T09:44:30.674Z,3780
2017-06-02T09:45:43.196Z,3865
2017-06-02T09:46:55.465Z,3590
2017-06-02T09:48:07.407Z,3465
2017-06-02T09:49:19.384Z,3880
2017-06-02T09:50:31.975Z,4030
2017-06-02T09:51:44.246Z,3850
2017-06-02T09:52:56.774Z,3635
2017-06-02T09:54:09.045Z,3795
2017-06-02T09:55:21.613Z,3725
2017-06-02T09:56:33.863Z,3870
2017-06-02T09:57:46.433Z,4065
2017-06-02T09:58:59.046Z,3840
2017-06-02T10:00:10.998Z,3635
2017-06-02T10:01:23.239Z,4115
2017-06-02T10:02:35.766Z,4115
2017-06-02T10:03:48.330Z,3990
2017-06-02T10:05:00.858Z,4055
2017-06-02T10:06:12.871Z,3765
2017-06-02T10:07:25.106Z,4015
2017-06-02T10:08:37.388Z,4315
2017-06-02T10:09:49.914Z,4210
2017-06-02T10:11:02.461Z,4085
2017-06-02T10:12:14.726Z,4190
2017-06-02T10:13:26.972Z,3950
2017-06-02T10:14:39.602Z,4060
2017-06-02T10:15:52.172Z,4335
2017-06-02T10:17:04.468Z,3870
2017-06-02T10:18:17.056Z,4305
2017-06-02T10:19:29.310Z,4610
2017-06-02T10:20:41.883Z,4420
2017-06-02T10:21:54.497Z,4230
2017-06-02T10:23:07.071Z,3850
2017-06-02T10:24:19.617Z,3975
2017-06-02T10:25:31.877Z,4155
2017-06-02T10:26:44.157Z,4390
2017-06-02T10:27:56.723Z,4535
2017-06-02T10:29:08.966Z,4140
2017-06-02T10:30:21.236Z,4185
2017-06-02T10:31:33.765Z,4095
2017-06-02T10:32:46.318Z,4540
2017-06-02T10:33:58.904Z,4505
2017-06-02T10:35:11.157Z,4260
2017-06-02T10:36:23.700Z,4340
2017-06-02T10:37:36.236Z,4305
2017-06-02T10:38:48.782Z,4235
2017-06-02T10:40:01.040Z,4130
2017-06-02T10:41:13.600Z,4180
2017-06-02T10:42:26.174Z,4320
2017-06-02T10:43:38.719Z,4235
2017-06-02T10:44:51.000Z,4045
2017-06-02T10:46:02.945Z,3750
2017-06-02T10:47:15.236Z,3735
2017-06-02T10:48:27.787Z,4120
2017-06-02T10:49:40.360Z,4080
2017-06-02T10:50:52.945Z,3945
2017-06-02T10:52:05.513Z,3755
2017-06-02T10:53:18.087Z,3720
2017-06-02T10:54:30.638Z,4125
2017-06-02T10:55:43.185Z,4035
2017-06-02T10:56:55.433Z,3885
2017-06-02T10:58:07.650Z,3920
2017-06-02T10:59:19.667Z,3700
2017-06-02T11:00:31.945Z,3740
2017-06-02T11:01:44.214Z,3735
2017-06-02T11:02:56.488Z,3675
2017-06-02T11:04:09.029Z,3425
2017-06-02T11:05:21.275Z,3040
2017-06-02T11:06:33.868Z,3230
2017-06-02T11:07:46.418Z,2805
2017-06-02T11:08:58.683Z,2805
2017-06-02T11:10:10.355Z,3000
2017-06-02T11:11:22.311Z,3105
2017-06-02T11:12:34.883Z,3075
2017-06-02T11:13:47.464Z,2895
2017-06-02T11:15:00.035Z,2835
2017-06-02T11:16:12.010Z,2570
2017-06-02T11:17:24.569Z,2530
2017-06-02T11:18:36.851Z,2240
2017-06-02T11:19:49.453Z,2035
2017-06-02T11:21:01.719Z,2270
2017-06-02T11:22:13.999Z,2165
2017-06-02T11:23:26.264Z,2180
2017-06-02T11:24:38.810Z,2085
2017-06-02T11:25:51.402Z,2180
2017-06-02T11:27:03.973Z,2110
2017-06-02T11:28:16.251Z,1985
2017-06-02T11:29:28.500Z,1900
2017-06-02T11:30:40.468Z,1765
2017-06-02T11:31:53.044Z,1875
2017-06-02T11:33:05.632Z,1945
2017-06-02T11:34:17.903Z,1905
2017-06-02T11:35:29.570Z,1790
2017-06-02T11:36:41.825Z,1700
2017-06-02T11:37:54.094Z,1630
2017-06-02T11:39:06.670Z,1665
2017-06-02T11:40:19.235Z,1665
2017-06-02T11:41:31.809Z,1715
2017-06-02T11:42:44.077Z,1720
2017-06-02T11:43:56.645Z,1730
2017-06-02T11:45:09.187Z,1710
2017-06-02T11:46:21.738Z,1625
2017-06-02T11:47:34.307Z,1945
2017-06-02T11:48:46.871Z,2110
2017-06-02T11:49:59.142Z,2620
2017-06-02T11:51:11.695Z,3510
2017-06-02T11:52:24.272Z,3965
2017-06-02T11:53:36.259Z,4940
2017-06-02T11:54:48.825Z,5895
2017-06-02T11:56:01.361Z,5585
2017-06-02T11:57:13.951Z,5010
2017-06-02T11:58:26.524Z,4485
2017-06-02T11:59:38.767Z,4220
2017-06-02T12:00:51.020Z,4735
2017-06-02T12:02:03.301Z,5050
2017-06-02T12:03:15.862Z,5405
2017-06-02T12:04:27.506Z,5375
2017-06-02T12:05:40.099Z,5655
2017-06-02T12:06:52.667Z,5415
2017-06-02T12:08:05.217Z,5050
2017-06-02T12:09:17.477Z,4630
2017-06-02T12:10:29.734Z,4625
2017-06-02T12:11:42.004Z,4335
2017-06-02T12:12:54.567Z,4620
2017-06-02T12:14:07.136Z,4515
2017-06-02T12:15:19.706Z,4540
2017-06-02T12:16:32.260Z,4405
2017-06-02T12:17:45.126Z,4465
2017-06-02T12:18:57.682Z,4770
2017-06-02T12:20:09.325Z,4760
2017-06-02T12:21:21.269Z,4310
2017-06-02T12:22:33.506Z,4155
2017-06-02T12:23:46.114Z,4240
2017-06-02T12:24:58.658Z,4540
2017-06-02T12:26:10.920Z,4640
2017-06-02T12:27:23.465Z,4680
2017-06-02T12:28:36.019Z,4605
2017-06-02T12:29:48.540Z,3985
2017-06-02T12:31:00.803Z,4325
2017-06-02T12:32:13.060Z,4985
2017-06-02T12:33:25.595Z,5165
2017-06-02T12:34:37.866Z,5535
2017-06-02T12:35:50.439Z,5545
2017-06-02T12:37:02.668Z,5490
2017-06-02T12:38:14.938Z,5360
2017-06-02T12:39:27.207Z,5105
2017-06-02T12:40:39.770Z,5440
2017-06-02T12:41:52.341Z,5170
2017-06-02T12:43:04.912Z,5130
2017-06-02T12:44:17.468Z,5310
2017-06-02T12:45:29.714Z,5380
2017-06-02T12:46:41.960Z,5065
2017-06-02T12:47:54.228Z,5315
2017-06-02T12:49:06.504Z,5460
2017-06-02T12:50:19.071Z,5160
2017-06-02T12:51:31.344Z,5130
2017-06-02T12:52:43.908Z,5215
2017-06-02T12:53:56.463Z,5100
2017-06-02T12:55:09.046Z,5470
2017-06-02T12:56:21.324Z,5365
2017-06-02T12:57:33.286Z,5475
2017-06-02T12:58:45.246Z,5600
2017-06-02T12:59:57.515Z,5885
2017-06-02T13:01:09.783Z,5365
2017-06-02T13:02:22.029Z,5380
2017-06-02T13:03:34.275Z,6145
2017-06-02T13:04:46.871Z,6465
2017-06-02T13:05:59.422Z,6795
2017-06-02T13:07:12.017Z,6620
2017-06-02T13:08:24.612Z,6395
2017-06-02T13:09:36.261Z,6395
2017-06-02T13:10:48.505Z,6545
2017-06-02T13:12:00.765Z,6930
2017-06-02T13:13:13.022Z,7460
2017-06-02T13:14:25.568Z,7360
2017-06-02T13:15:38.134Z,6960
2017-06-02T13:16:50.109Z,6855
2017-06-02T13:18:02.102Z,6545
2017-06-02T13:19:14.050Z,6505
2017-06-02T13:20:26.596Z,6520
2017-06-02T13:21:38.232Z,6435
2017-06-02T13:22:50.489Z,6360
2017-06-02T13:24:02.780Z,6525
2017-06-02T13:25:15.031Z,6255
2017-06-02T13:26:27.303Z,6425
2017-06-02T13:27:39.872Z,6510
2017-06-02T13:28:52.417Z,5915
2017-06-02T13:30:04.377Z,5565
2017-06-02T13:31:16.634Z,5620
2017-06-02T13:32:28.578Z,5560
2017-06-02T13:33:41.140Z,5815
2017-06-02T13:34:53.690Z,5675
2017-06-02T13:36:05.639Z,5465
2017-06-02T13:37:17.611Z,5785
2017-06-02T13:38:30.188Z,5915
2017-06-02T13:39:42.449Z,5620
2017-06-02T13:40:55.019Z,5495
2017-06-02T13:42:07.589Z,5485
2017-06-02T13:43:19.571Z,5440
2017-06-02T13:44:32.117Z,5275
2017-06-02T13:45:44.358Z,4890
2017-06-02T13:46:56.906Z,5020
2017-06-02T13:48:09.171Z,5230
2017-06-02T13:49:21.739Z,4940
2017-06-02T13:50:34.009Z,4850
2017-06-02T13:51:46.280Z,4975
2017-06-02T13:52:58.829Z,5040
2017-06-02T13:54:11.078Z,5200
2017-06-02T13:55:23.304Z,4895
2017-06-02T13:56:35.592Z,4925
2017-06-02T13:57:48.146Z,5080
2017-06-02T13:59:00.754Z,5290
2017-06-02T14:00:13.308Z,5390
2017-06-02T14:01:25.879Z,5435
2017-06-02T14:02:38.447Z,5595
2017-06-02T14:03:50.725Z,5420
2017-06-02T14:05:02.996Z,5350
2017-06-02T14:06:15.606Z,5540
2017-06-02T14:07:28.159Z,5460
2017-06-02T14:08:40.108Z,5365
2017-06-02T14:09:52.079Z,4960
2017-06-02T14:11:04.351Z,5040
2017-06-02T14:12:16.918Z,5130
2017-06-02T14:13:29.192Z,5195
2017-06-02T14:14:41.452Z,4895
2017-06-02T14:15:53.709Z,4685
2017-06-02T14:17:06.297Z,4560
2017-06-02T14:18:18.247Z,4660
2017-06-02T14:19:30.815Z,4920
2017-06-02T14:20:43.089Z,4810
2017-06-02T14:21:55.665Z,4905
2017-06-02T14:23:07.935Z,4810
2017-06-02T14:24:20.195Z,4380
2017-06-02T14:25:32.740Z,4150
2017-06-02T14:26:45.297Z,4185
2017-06-02T14:27:57.856Z,4570
2017-06-02T14:29:10.431Z,4730
2017-06-02T14:30:22.686Z,4860
2017-06-02T14:31:34.969Z,4595
2017-06-02T14:32:46.924Z,4430
2017-06-02T14:33:58.865Z,4745
2017-06-02T14:35:11.116Z,4440
2017-06-02T14:36:23.367Z,4425
2017-06-02T14:37:35.935Z,4150
2017-06-02T14:38:48.797Z,3860
2017-06-02T14:40:01.053Z,3985
2017-06-02T14:41:13.327Z,4185
2017-06-02T14:42:25.272Z,3835
2017-06-02T14:43:37.257Z,1410
2017-06-02T14:44:49.815Z,1110
2017-06-02T14:46:02.331Z,415
2017-06-02T14:47:14.579Z,345
2017-06-02T14:48:27.149Z,250
2017-06-02T14:49:39.694Z,240
2017-06-02T14:50:52.279Z,300
2017-06-02T14:52:04.229Z,225
2017-06-02T14:53:15.897Z,225
2017-06-02T14:54:28.144Z,225
2017-06-02T14:55:40.426Z,250
2017-06-02T14:56:52.994Z,220
2017-06-02T14:58:05.541Z,220
2017-06-02T14:59:17.758Z,220
2017-06-02T15:00:30.030Z,220
2017-06-02T15:01:42.259Z,220
2017-06-02T15:02:54.824Z,220
2017-06-02T15:04:07.388Z,220
2017-06-02T15:05:19.942Z,215
2017-06-02T15:06:32.190Z,215
2017-06-02T15:07:44.433Z,215
2017-06-02T15:08:56.979Z,215
2017-06-02T15:10:09.250Z,215
2017-06-02T15:11:21.839Z,215
2017-06-02T15:12:34.386Z,215
2017-06-02T15:13:46.335Z,215
2017-06-02T15:14:58.597Z,210
2017-06-02T15:16:11.169Z,210
2017-06-02T15:17:23.443Z,210
2017-06-02T15:18:36.012Z,210
2017-06-02T15:19:48.266Z,210
2017-06-02T15:21:00.807Z,210
2017-06-02T15:22:13.335Z,210
2017-06-02T15:23:25.872Z,210
2017-06-02T15:24:38.426Z,205
2017-06-02T15:25:50.690Z,205
2017-06-02T15:27:03.242Z,205
2017-06-02T15:28:15.768Z,285
2017-06-02T15:29:28.035Z,250
2017-06-02T15:30:40.282Z,220
2017-06-02T15:31:52.876Z,205
2017-06-02T15:33:06.244Z,225
2017-06-02T15:34:18.467Z,275
2017-06-02T15:35:30.712Z,270
2017-06-02T15:36:43.281Z,455
2017-06-02T15:37:55.807Z,985
2017-06-02T15:39:08.343Z,685
2017-06-02T15:40:19.990Z,205
2017-06-02T15:41:32.221Z,215
2017-06-02T15:42:44.782Z,430
2017-06-02T15:43:57.003Z,540
2017-06-02T15:45:09.560Z,205
2017-06-02T15:46:22.095Z,210
2017-06-02T15:47:34.624Z,210
2017-06-02T15:48:46.867Z,200
2017-06-02T15:49:59.412Z,190
2017-06-02T15:51:11.978Z,190
2017-06-02T15:52:24.532Z,190
2017-06-02T15:53:36.767Z,190
2017-06-02T15:54:49.252Z,185
2017-06-02T15:56:01.791Z,190
2017-06-02T15:57:14.315Z,185
2017-06-02T15:58:26.533Z,185
2017-06-02T15:59:38.775Z,180
2017-06-02T16:00:51.346Z,185
2017-06-02T16:02:03.892Z,175
2017-06-02T16:03:16.137Z,175
2017-06-02T16:04:28.392Z,175
2017-06-02T16:05:40.951Z,170
2017-06-02T16:06:53.511Z,170
2017-06-02T16:08:05.751Z,165
2017-06-02T16:09:17.071Z,165
2017-06-02T16:10:29.595Z,165
2017-06-02T16:11:41.839Z,160
2017-06-02T16:12:54.380Z,160
2017-06-02T16:14:06.938Z,160
2017-06-02T16:15:18.885Z,160
2017-06-02T16:16:31.426Z,155
2017-06-02T16:17:43.672Z,155
2017-06-02T16:18:56.214Z,155
2017-06-02T16:20:08.752Z,155
2017-06-02T16:21:20.985Z,155
2017-06-02T16:22:33.535Z,155
2017-06-02T16:23:46.055Z,150
2017-06-02T16:24:58.622Z,150
2017-06-02T16:26:11.184Z,150
2017-06-02T16:27:23.441Z,150
2017-06-02T16:28:35.681Z,150
2017-06-02T16:29:48.195Z,150
2017-06-02T16:31:00.421Z,145
2017-06-02T16:32:12.661Z,145
2017-06-02T16:33:25.211Z,145